sensor_id;sensor_type;location;lat;lon;timestamp;P1;durP1;ratioP1;P2;durP2;ratioP2
23956;SDS011;12165;45.458;11.062;2022-08-21T00:02:22;2.90;;;1.42;;
23956;SDS011;12165;45.458;11.062;2022-08-21T00:04:50;7.38;;;1.83;;
23956;SDS011;12165;45.458;11.062;2022-08-21T00:07:23;3.17;;;1.33;;
23956;SDS011;12165;45.458;11.062;2022-08-21T00:09:51;2.00;;;1.23;;
23956;SDS011;12165;45.458;11.062;2022-08-21T00:12:19;3.03;;;1.33;;
23956;SDS011;12165;45.458;11.062;2022-08-21T00:14:46;1.98;;;1.10;;
23956;SDS011;12165;45.458;11.062;2022-08-21T00:17:13;2.95;;;1.40;;
23956;SDS011;12165;45.458;11.062;2022-08-21T00:19:40;4.22;;;1.35;;
23956;SDS011;12165;45.458;11.062;2022-08-21T00:22:07;4.05;;;1.50;;
23956;SDS011;12165;45.458;11.062;2022-08-21T00:24:34;3.50;;;1.30;;
23956;SDS011;12165;45.458;11.062;2022-08-21T00:27:02;2.00;;;1.02;;
23956;SDS011;12165;45.458;11.062;2022-08-21T00:29:29;4.85;;;1.30;;
23956;SDS011;12165;45.458;11.062;2022-08-21T00:31:56;2.97;;;1.15;;
23956;SDS011;12165;45.458;11.062;2022-08-21T00:34:23;3.60;;;1.27;;
23956;SDS011;12165;45.458;11.062;2022-08-21T00:36:51;4.80;;;1.20;;
23956;SDS011;12165;45.458;11.062;2022-08-21T00:39:17;2.53;;;1.30;;
23956;SDS011;12165;45.458;11.062;2022-08-21T00:41:45;4.45;;;1.17;;
23956;SDS011;12165;45.458;11.062;2022-08-21T00:44:12;2.42;;;1.23;;
23956;SDS011;12165;45.458;11.062;2022-08-21T00:46:40;1.95;;;1.00;;
23956;SDS011;12165;45.458;11.062;2022-08-21T00:49:09;3.88;;;1.35;;
23956;SDS011;12165;45.458;11.062;2022-08-21T00:51:48;4.53;;;1.30;;
23956;SDS011;12165;45.458;11.062;2022-08-21T00:54:19;2.55;;;1.38;;
23956;SDS011;12165;45.458;11.062;2022-08-21T00:56:52;2.10;;;1.10;;
23956;SDS011;12165;45.458;11.062;2022-08-21T00:59:24;2.20;;;1.20;;
23956;SDS011;12165;45.458;11.062;2022-08-21T01:01:52;1.70;;;1.27;;
23956;SDS011;12165;45.458;11.062;2022-08-21T01:04:20;3.83;;;1.30;;
23956;SDS011;12165;45.458;11.062;2022-08-21T01:06:48;4.03;;;1.20;;
23956;SDS011;12165;45.458;11.062;2022-08-21T01:09:17;4.57;;;1.58;;
23956;SDS011;12165;45.458;11.062;2022-08-21T01:11:46;1.98;;;1.45;;
23956;SDS011;12165;45.458;11.062;2022-08-21T01:14:13;4.18;;;1.30;;
23956;SDS011;12165;45.458;11.062;2022-08-21T01:16:41;2.67;;;1.20;;
23956;SDS011;12165;45.458;11.062;2022-08-21T01:19:12;1.90;;;1.23;;
23956;SDS011;12165;45.458;11.062;2022-08-21T01:21:41;4.97;;;1.83;;
23956;SDS011;12165;45.458;11.062;2022-08-21T01:24:09;2.63;;;1.23;;
23956;SDS011;12165;45.458;11.062;2022-08-21T01:26:36;1.70;;;1.08;;
23956;SDS011;12165;45.458;11.062;2022-08-21T01:29:09;3.72;;;1.05;;
23956;SDS011;12165;45.458;11.062;2022-08-21T01:31:53;5.00;;;1.45;;
23956;SDS011;12165;45.458;11.062;2022-08-21T01:34:20;2.00;;;1.30;;
23956;SDS011;12165;45.458;11.062;2022-08-21T01:36:47;3.13;;;1.33;;
23956;SDS011;12165;45.458;11.062;2022-08-21T01:39:15;2.63;;;1.00;;
23956;SDS011;12165;45.458;11.062;2022-08-21T01:41:42;3.20;;;1.20;;
23956;SDS011;12165;45.458;11.062;2022-08-21T01:44:09;3.60;;;1.27;;
23956;SDS011;12165;45.458;11.062;2022-08-21T01:46:36;2.08;;;1.10;;
23956;SDS011;12165;45.458;11.062;2022-08-21T01:49:04;4.95;;;1.38;;
23956;SDS011;12165;45.458;11.062;2022-08-21T01:51:32;4.95;;;1.10;;
23956;SDS011;12165;45.458;11.062;2022-08-21T01:53:59;3.38;;;1.38;;
23956;SDS011;12165;45.458;11.062;2022-08-21T01:56:26;2.38;;;1.20;;
23956;SDS011;12165;45.458;11.062;2022-08-21T01:58:54;2.78;;;1.25;;
23956;SDS011;12165;45.458;11.062;2022-08-21T02:01:21;1.90;;;1.23;;
23956;SDS011;12165;45.458;11.062;2022-08-21T02:03:48;1.92;;;1.35;;
23956;SDS011;12165;45.458;11.062;2022-08-21T02:06:15;5.57;;;1.60;;
23956;SDS011;12165;45.458;11.062;2022-08-21T02:08:44;2.05;;;1.15;;
23956;SDS011;12165;45.458;11.062;2022-08-21T02:11:12;3.83;;;1.42;;
23956;SDS011;12165;45.458;11.062;2022-08-21T02:13:39;3.35;;;1.30;;
23956;SDS011;12165;45.458;11.062;2022-08-21T02:16:06;3.50;;;1.48;;
23956;SDS011;12165;45.458;11.062;2022-08-21T02:18:34;4.57;;;1.63;;
23956;SDS011;12165;45.458;11.062;2022-08-21T02:21:02;2.97;;;1.20;;
23956;SDS011;12165;45.458;11.062;2022-08-21T02:23:31;2.35;;;1.50;;
23956;SDS011;12165;45.458;11.062;2022-08-21T02:25:58;3.60;;;1.20;;
23956;SDS011;12165;45.458;11.062;2022-08-21T02:28:26;11.15;;;1.50;;
23956;SDS011;12165;45.458;11.062;2022-08-21T02:30:54;6.63;;;1.40;;
23956;SDS011;12165;45.458;11.062;2022-08-21T02:33:22;2.28;;;1.08;;
23956;SDS011;12165;45.458;11.062;2022-08-21T02:35:50;4.15;;;1.48;;
23956;SDS011;12165;45.458;11.062;2022-08-21T02:38:28;4.00;;;1.15;;
23956;SDS011;12165;45.458;11.062;2022-08-21T02:40:59;3.67;;;1.30;;
23956;SDS011;12165;45.458;11.062;2022-08-21T02:43:27;3.33;;;1.60;;
23956;SDS011;12165;45.458;11.062;2022-08-21T02:45:55;3.60;;;1.20;;
23956;SDS011;12165;45.458;11.062;2022-08-21T02:48:24;2.47;;;1.10;;
23956;SDS011;12165;45.458;11.062;2022-08-21T02:50:57;4.85;;;1.40;;
23956;SDS011;12165;45.458;11.062;2022-08-21T02:53:26;4.05;;;1.45;;
23956;SDS011;12165;45.458;11.062;2022-08-21T02:55:54;2.35;;;1.15;;
23956;SDS011;12165;45.458;11.062;2022-08-21T02:58:26;2.25;;;1.25;;
23956;SDS011;12165;45.458;11.062;2022-08-21T03:00:57;1.25;;;0.90;;
23956;SDS011;12165;45.458;11.062;2022-08-21T03:03:25;3.35;;;1.27;;
23956;SDS011;12165;45.458;11.062;2022-08-21T03:05:53;2.15;;;1.35;;
23956;SDS011;12165;45.458;11.062;2022-08-21T03:08:21;1.50;;;1.17;;
23956;SDS011;12165;45.458;11.062;2022-08-21T03:10:53;0.73;;;0.65;;
23956;SDS011;12165;45.458;11.062;2022-08-21T03:13:20;4.45;;;1.20;;
23956;SDS011;12165;45.458;11.062;2022-08-21T03:15:47;4.15;;;1.20;;
23956;SDS011;12165;45.458;11.062;2022-08-21T03:18:16;1.98;;;1.13;;
23956;SDS011;12165;45.458;11.062;2022-08-21T03:20:43;3.38;;;1.00;;
23956;SDS011;12165;45.458;11.062;2022-08-21T03:23:11;3.10;;;1.20;;
23956;SDS011;12165;45.458;11.062;2022-08-21T03:25:42;4.95;;;1.30;;
23956;SDS011;12165;45.458;11.062;2022-08-21T03:28:12;4.63;;;1.30;;
23956;SDS011;12165;45.458;11.062;2022-08-21T03:30:42;2.40;;;1.00;;
23956;SDS011;12165;45.458;11.062;2022-08-21T03:33:10;3.17;;;1.05;;
23956;SDS011;12165;45.458;11.062;2022-08-21T03:35:41;2.38;;;1.10;;
23956;SDS011;12165;45.458;11.062;2022-08-21T03:38:09;2.53;;;0.98;;
23956;SDS011;12165;45.458;11.062;2022-08-21T03:40:39;2.95;;;1.30;;
23956;SDS011;12165;45.458;11.062;2022-08-21T03:43:07;3.10;;;1.10;;
23956;SDS011;12165;45.458;11.062;2022-08-21T03:45:35;7.13;;;1.30;;
23956;SDS011;12165;45.458;11.062;2022-08-21T03:48:05;3.80;;;1.08;;
23956;SDS011;12165;45.458;11.062;2022-08-21T03:50:33;10.48;;;1.10;;
23956;SDS011;12165;45.458;11.062;2022-08-21T03:53:07;2.50;;;1.00;;
23956;SDS011;12165;45.458;11.062;2022-08-21T03:55:42;6.35;;;0.90;;
23956;SDS011;12165;45.458;11.062;2022-08-21T03:58:18;3.70;;;1.13;;
23956;SDS011;12165;45.458;11.062;2022-08-21T04:00:47;3.45;;;1.00;;
23956;SDS011;12165;45.458;11.062;2022-08-21T04:03:16;2.63;;;0.90;;
23956;SDS011;12165;45.458;11.062;2022-08-21T04:05:44;1.58;;;0.88;;
23956;SDS011;12165;45.458;11.062;2022-08-21T04:08:36;2.05;;;1.27;;
23956;SDS011;12165;45.458;11.062;2022-08-21T04:11:03;3.15;;;1.10;;
23956;SDS011;12165;45.458;11.062;2022-08-21T04:13:31;4.82;;;1.10;;
23956;SDS011;12165;45.458;11.062;2022-08-21T04:15:58;4.47;;;1.20;;
23956;SDS011;12165;45.458;11.062;2022-08-21T04:18:25;4.20;;;1.10;;
23956;SDS011;12165;45.458;11.062;2022-08-21T04:20:52;6.57;;;0.80;;
23956;SDS011;12165;45.458;11.062;2022-08-21T04:23:23;2.88;;;1.25;;
23956;SDS011;12165;45.458;11.062;2022-08-21T04:25:52;2.75;;;0.95;;
23956;SDS011;12165;45.458;11.062;2022-08-21T04:28:24;2.63;;;1.02;;
23956;SDS011;12165;45.458;11.062;2022-08-21T04:30:56;4.05;;;0.90;;
23956;SDS011;12165;45.458;11.062;2022-08-21T04:33:23;2.25;;;0.90;;
23956;SDS011;12165;45.458;11.062;2022-08-21T04:35:50;5.55;;;1.20;;
23956;SDS011;12165;45.458;11.062;2022-08-21T04:38:17;2.60;;;1.15;;
23956;SDS011;12165;45.458;11.062;2022-08-21T04:40:45;5.47;;;0.90;;
23956;SDS011;12165;45.458;11.062;2022-08-21T04:43:13;4.32;;;1.25;;
23956;SDS011;12165;45.458;11.062;2022-08-21T04:45:42;4.90;;;1.20;;
23956;SDS011;12165;45.458;11.062;2022-08-21T04:48:12;5.07;;;1.10;;
23956;SDS011;12165;45.458;11.062;2022-08-21T04:50:47;4.10;;;1.27;;
23956;SDS011;12165;45.458;11.062;2022-08-21T04:53:33;5.35;;;0.98;;
23956;SDS011;12165;45.458;11.062;2022-08-21T04:56:14;5.57;;;1.20;;
23956;SDS011;12165;45.458;11.062;2022-08-21T04:58:53;3.70;;;1.00;;
23956;SDS011;12165;45.458;11.062;2022-08-21T05:01:24;3.75;;;0.80;;
23956;SDS011;12165;45.458;11.062;2022-08-21T05:03:54;3.28;;;0.80;;
23956;SDS011;12165;45.458;11.062;2022-08-21T05:06:25;2.08;;;0.70;;
23956;SDS011;12165;45.458;11.062;2022-08-21T05:08:54;4.45;;;0.85;;
23956;SDS011;12165;45.458;11.062;2022-08-21T05:11:28;6.57;;;1.07;;
23956;SDS011;12165;45.458;11.062;2022-08-21T05:13:56;2.42;;;0.75;;
23956;SDS011;12165;45.458;11.062;2022-08-21T05:16:24;3.50;;;1.00;;
23956;SDS011;12165;45.458;11.062;2022-08-21T05:19:02;1.85;;;0.70;;
23956;SDS011;12165;45.458;11.062;2022-08-21T05:21:31;3.30;;;1.02;;
23956;SDS011;12165;45.458;11.062;2022-08-21T05:23:59;1.70;;;0.70;;
23956;SDS011;12165;45.458;11.062;2022-08-21T05:26:26;2.80;;;0.80;;
23956;SDS011;12165;45.458;11.062;2022-08-21T05:28:53;5.65;;;1.23;;
23956;SDS011;12165;45.458;11.062;2022-08-21T05:31:20;1.95;;;0.80;;
23956;SDS011;12165;45.458;11.062;2022-08-21T05:33:47;4.57;;;1.10;;
23956;SDS011;12165;45.458;11.062;2022-08-21T05:36:17;4.95;;;0.88;;
23956;SDS011;12165;45.458;11.062;2022-08-21T05:38:45;3.58;;;0.80;;
23956;SDS011;12165;45.458;11.062;2022-08-21T05:41:12;2.20;;;0.80;;
23956;SDS011;12165;45.458;11.062;2022-08-21T05:43:39;2.88;;;0.90;;
23956;SDS011;12165;45.458;11.062;2022-08-21T05:46:06;1.08;;;0.68;;
23956;SDS011;12165;45.458;11.062;2022-08-21T05:48:34;6.38;;;0.90;;
23956;SDS011;12165;45.458;11.062;2022-08-21T05:51:10;3.10;;;0.60;;
23956;SDS011;12165;45.458;11.062;2022-08-21T05:53:39;3.38;;;0.80;;
23956;SDS011;12165;45.458;11.062;2022-08-21T05:56:08;3.92;;;0.93;;
23956;SDS011;12165;45.458;11.062;2022-08-21T05:58:36;2.83;;;0.80;;
23956;SDS011;12165;45.458;11.062;2022-08-21T06:01:04;4.65;;;0.82;;
23956;SDS011;12165;45.458;11.062;2022-08-21T06:03:33;4.60;;;0.88;;
23956;SDS011;12165;45.458;11.062;2022-08-21T06:06:02;5.07;;;0.70;;
23956;SDS011;12165;45.458;11.062;2022-08-21T06:08:30;3.22;;;0.82;;
23956;SDS011;12165;45.458;11.062;2022-08-21T06:10:58;3.80;;;0.90;;
23956;SDS011;12165;45.458;11.062;2022-08-21T06:13:26;4.43;;;1.30;;
23956;SDS011;12165;45.458;11.062;2022-08-21T06:16:01;3.47;;;0.75;;
23956;SDS011;12165;45.458;11.062;2022-08-21T06:18:35;3.75;;;0.75;;
23956;SDS011;12165;45.458;11.062;2022-08-21T06:21:04;3.92;;;0.80;;
23956;SDS011;12165;45.458;11.062;2022-08-21T06:23:31;2.40;;;0.95;;
23956;SDS011;12165;45.458;11.062;2022-08-21T06:26:00;3.17;;;0.93;;
23956;SDS011;12165;45.458;11.062;2022-08-21T06:28:28;2.47;;;0.93;;
23956;SDS011;12165;45.458;11.062;2022-08-21T06:30:55;2.00;;;1.23;;
23956;SDS011;12165;45.458;11.062;2022-08-21T06:33:22;2.63;;;0.85;;
23956;SDS011;12165;45.458;11.062;2022-08-21T06:35:54;3.45;;;1.10;;
23956;SDS011;12165;45.458;11.062;2022-08-21T06:38:21;2.45;;;0.95;;
23956;SDS011;12165;45.458;11.062;2022-08-21T06:40:48;3.33;;;1.00;;
23956;SDS011;12165;45.458;11.062;2022-08-21T06:43:17;3.28;;;1.00;;
23956;SDS011;12165;45.458;11.062;2022-08-21T06:45:45;2.60;;;0.95;;
23956;SDS011;12165;45.458;11.062;2022-08-21T06:48:12;2.65;;;0.98;;
23956;SDS011;12165;45.458;11.062;2022-08-21T06:50:44;3.97;;;1.05;;
23956;SDS011;12165;45.458;11.062;2022-08-21T06:53:13;3.88;;;0.80;;
23956;SDS011;12165;45.458;11.062;2022-08-21T06:55:47;1.60;;;0.70;;
23956;SDS011;12165;45.458;11.062;2022-08-21T06:58:14;1.85;;;1.13;;
23956;SDS011;12165;45.458;11.062;2022-08-21T07:00:43;2.58;;;0.90;;
23956;SDS011;12165;45.458;11.062;2022-08-21T07:03:33;4.78;;;1.00;;
23956;SDS011;12165;45.458;11.062;2022-08-21T07:06:04;3.78;;;1.27;;
23956;SDS011;12165;45.458;11.062;2022-08-21T07:59:37;3.50;;;1.00;;
23956;SDS011;12165;45.458;11.062;2022-08-21T08:06:29;2.75;;;0.98;;
23956;SDS011;12165;45.458;11.062;2022-08-21T08:13:16;2.30;;;1.10;;
23956;SDS011;12165;45.458;11.062;2022-08-21T08:15:43;2.28;;;0.98;;
23956;SDS011;12165;45.458;11.062;2022-08-21T08:18:10;2.08;;;0.85;;
23956;SDS011;12165;45.458;11.062;2022-08-21T08:20:37;1.85;;;0.98;;
23956;SDS011;12165;45.458;11.062;2022-08-21T08:23:04;2.42;;;0.80;;
23956;SDS011;12165;45.458;11.062;2022-08-21T08:25:32;3.97;;;1.33;;
23956;SDS011;12165;45.458;11.062;2022-08-21T08:28:02;2.38;;;1.30;;
23956;SDS011;12165;45.458;11.062;2022-08-21T08:30:43;1.85;;;1.00;;
23956;SDS011;12165;45.458;11.062;2022-08-21T08:33:11;2.42;;;1.20;;
23956;SDS011;12165;45.458;11.062;2022-08-21T08:35:38;1.35;;;0.80;;
23956;SDS011;12165;45.458;11.062;2022-08-21T08:38:11;2.70;;;0.98;;
23956;SDS011;12165;45.458;11.062;2022-08-21T08:40:43;1.48;;;0.90;;
23956;SDS011;12165;45.458;11.062;2022-08-21T08:43:14;3.00;;;1.15;;
23956;SDS011;12165;45.458;11.062;2022-08-21T08:45:42;2.95;;;0.90;;
23956;SDS011;12165;45.458;11.062;2022-08-21T08:48:16;4.18;;;1.15;;
23956;SDS011;12165;45.458;11.062;2022-08-21T08:55:35;1.83;;;1.20;;
23956;SDS011;12165;45.458;11.062;2022-08-21T09:00:33;3.35;;;0.95;;
23956;SDS011;12165;45.458;11.062;2022-08-21T09:03:01;4.70;;;1.20;;
23956;SDS011;12165;45.458;11.062;2022-08-21T09:05:30;3.15;;;1.27;;
23956;SDS011;12165;45.458;11.062;2022-08-21T09:16:21;2.55;;;1.35;;
23956;SDS011;12165;45.458;11.062;2022-08-21T09:19:18;3.25;;;1.33;;
23956;SDS011;12165;45.458;11.062;2022-08-21T09:30:30;4.82;;;1.45;;
23956;SDS011;12165;45.458;11.062;2022-08-21T09:32:58;3.42;;;1.20;;
23956;SDS011;12165;45.458;11.062;2022-08-21T09:35:26;2.05;;;1.25;;
23956;SDS011;12165;45.458;11.062;2022-08-21T09:37:55;2.60;;;1.10;;
23956;SDS011;12165;45.458;11.062;2022-08-21T09:43:07;2.67;;;1.30;;
23956;SDS011;12165;45.458;11.062;2022-08-21T09:45:48;3.97;;;1.10;;
23956;SDS011;12165;45.458;11.062;2022-08-21T09:48:26;2.67;;;1.10;;
23956;SDS011;12165;45.458;11.062;2022-08-21T09:51:19;3.60;;;1.30;;
23956;SDS011;12165;45.458;11.062;2022-08-21T09:53:57;4.15;;;1.40;;
23956;SDS011;12165;45.458;11.062;2022-08-21T09:56:59;3.15;;;1.27;;
23956;SDS011;12165;45.458;11.062;2022-08-21T10:00:06;2.70;;;1.20;;
23956;SDS011;12165;45.458;11.062;2022-08-21T10:05:51;3.00;;;1.25;;
23956;SDS011;12165;45.458;11.062;2022-08-21T10:08:25;3.63;;;1.08;;
23956;SDS011;12165;45.458;11.062;2022-08-21T10:10:55;2.92;;;1.30;;
23956;SDS011;12165;45.458;11.062;2022-08-21T10:19:01;2.95;;;1.27;;
23956;SDS011;12165;45.458;11.062;2022-08-21T10:24:28;2.92;;;1.30;;
23956;SDS011;12165;45.458;11.062;2022-08-21T10:36:34;1.98;;;0.90;;
23956;SDS011;12165;45.458;11.062;2022-08-21T10:47:44;2.03;;;0.90;;
23956;SDS011;12165;45.458;11.062;2022-08-21T10:53:19;1.38;;;0.80;;
23956;SDS011;12165;45.458;11.062;2022-08-21T10:58:30;3.53;;;0.95;;
23956;SDS011;12165;45.458;11.062;2022-08-21T11:01:10;2.50;;;1.02;;
23956;SDS011;12165;45.458;11.062;2022-08-21T11:03:43;2.72;;;1.17;;
23956;SDS011;12165;45.458;11.062;2022-08-21T11:06:15;2.97;;;1.00;;
23956;SDS011;12165;45.458;11.062;2022-08-21T11:13:08;2.28;;;1.10;;
23956;SDS011;12165;45.458;11.062;2022-08-21T11:15:59;1.20;;;0.70;;
23956;SDS011;12165;45.458;11.062;2022-08-21T11:18:36;0.82;;;0.68;;
23956;SDS011;12165;45.458;11.062;2022-08-21T11:26:41;3.22;;;0.80;;
23956;SDS011;12165;45.458;11.062;2022-08-21T11:45:51;1.27;;;0.80;;
23956;SDS011;12165;45.458;11.062;2022-08-21T11:48:32;1.25;;;0.90;;
23956;SDS011;12165;45.458;11.062;2022-08-21T11:51:22;0.90;;;0.57;;
23956;SDS011;12165;45.458;11.062;2022-08-21T11:58:00;4.38;;;0.80;;
23956;SDS011;12165;45.458;11.062;2022-08-21T12:00:31;1.55;;;0.80;;
23956;SDS011;12165;45.458;11.062;2022-08-21T12:03:09;0.77;;;0.60;;
23956;SDS011;12165;45.458;11.062;2022-08-21T12:05:41;1.02;;;0.82;;
23956;SDS011;12165;45.458;11.062;2022-08-21T12:10:58;1.10;;;0.63;;
23956;SDS011;12165;45.458;11.062;2022-08-21T12:13:54;1.65;;;0.80;;
23956;SDS011;12165;45.458;11.062;2022-08-21T12:16:44;1.00;;;0.68;;
23956;SDS011;12165;45.458;11.062;2022-08-21T12:19:14;2.60;;;0.68;;
23956;SDS011;12165;45.458;11.062;2022-08-21T12:22:07;2.42;;;0.55;;
23956;SDS011;12165;45.458;11.062;2022-08-21T12:24:37;0.98;;;0.63;;
23956;SDS011;12165;45.458;11.062;2022-08-21T12:27:25;1.77;;;0.80;;
23956;SDS011;12165;45.458;11.062;2022-08-21T12:30:05;1.52;;;0.63;;
23956;SDS011;12165;45.458;11.062;2022-08-21T12:32:55;1.13;;;0.60;;
23956;SDS011;12165;45.458;11.062;2022-08-21T12:35:26;3.42;;;0.60;;
23956;SDS011;12165;45.458;11.062;2022-08-21T12:38:07;2.43;;;0.90;;
23956;SDS011;12165;45.458;11.062;2022-08-21T12:43:43;1.63;;;0.73;;
23956;SDS011;12165;45.458;11.062;2022-08-21T12:46:37;1.08;;;0.70;;
23956;SDS011;12165;45.458;11.062;2022-08-21T12:50:23;1.80;;;0.57;;
23956;SDS011;12165;45.458;11.062;2022-08-21T12:52:24;0.77;;;0.60;;
23956;SDS011;12165;45.458;11.062;2022-08-21T12:55:12;2.08;;;0.70;;
23956;SDS011;12165;45.458;11.062;2022-08-21T12:57:44;1.17;;;0.75;;
23956;SDS011;12165;45.458;11.062;2022-08-21T13:00:12;2.08;;;0.80;;
23956;SDS011;12165;45.458;11.062;2022-08-21T13:02:46;2.03;;;0.82;;
23956;SDS011;12165;45.458;11.062;2022-08-21T13:05:16;1.15;;;0.82;;
23956;SDS011;12165;45.458;11.062;2022-08-21T13:07:53;1.20;;;0.82;;
23956;SDS011;12165;45.458;11.062;2022-08-21T13:10:22;1.15;;;0.73;;
23956;SDS011;12165;45.458;11.062;2022-08-21T13:12:54;2.65;;;0.90;;
23956;SDS011;12165;45.458;11.062;2022-08-21T13:15:38;2.22;;;0.70;;
23956;SDS011;12165;45.458;11.062;2022-08-21T13:18:23;1.05;;;0.65;;
23956;SDS011;12165;45.458;11.062;2022-08-21T13:21:02;1.65;;;0.90;;
23956;SDS011;12165;45.458;11.062;2022-08-21T13:23:31;1.20;;;0.80;;
23956;SDS011;12165;45.458;11.062;2022-08-21T13:25:58;1.65;;;0.80;;
23956;SDS011;12165;45.458;11.062;2022-08-21T13:28:32;1.55;;;0.90;;
23956;SDS011;12165;45.458;11.062;2022-08-21T13:31:00;0.70;;;0.60;;
23956;SDS011;12165;45.458;11.062;2022-08-21T13:33:30;1.80;;;0.60;;
23956;SDS011;12165;45.458;11.062;2022-08-21T13:36:17;1.20;;;0.63;;
23956;SDS011;12165;45.458;11.062;2022-08-21T13:39:06;1.23;;;0.70;;
23956;SDS011;12165;45.458;11.062;2022-08-21T13:41:37;1.10;;;0.80;;
23956;SDS011;12165;45.458;11.062;2022-08-21T13:47:04;3.47;;;1.70;;
23956;SDS011;12165;45.458;11.062;2022-08-21T13:49:33;1.63;;;0.98;;
23956;SDS011;12165;45.458;11.062;2022-08-21T13:52:13;1.73;;;0.77;;
23956;SDS011;12165;45.458;11.062;2022-08-21T13:54:42;1.83;;;0.70;;
23956;SDS011;12165;45.458;11.062;2022-08-21T13:57:17;1.52;;;0.50;;
23956;SDS011;12165;45.458;11.062;2022-08-21T13:59:46;1.42;;;0.90;;
23956;SDS011;12165;45.458;11.062;2022-08-21T14:02:19;0.70;;;0.63;;
23956;SDS011;12165;45.458;11.062;2022-08-21T14:04:54;2.13;;;0.70;;
23956;SDS011;12165;45.458;11.062;2022-08-21T14:07:33;1.00;;;0.70;;
23956;SDS011;12165;45.458;11.062;2022-08-21T14:10:03;2.45;;;0.93;;
23956;SDS011;12165;45.458;11.062;2022-08-21T14:12:35;1.52;;;0.77;;
23956;SDS011;12165;45.458;11.062;2022-08-21T14:15:09;3.15;;;1.00;;
23956;SDS011;12165;45.458;11.062;2022-08-21T14:17:39;1.92;;;0.70;;
23956;SDS011;12165;45.458;11.062;2022-08-21T14:20:30;1.50;;;0.98;;
23956;SDS011;12165;45.458;11.062;2022-08-21T14:22:57;0.95;;;0.77;;
23956;SDS011;12165;45.458;11.062;2022-08-21T14:30:38;3.22;;;0.95;;
23956;SDS011;12165;45.458;11.062;2022-08-21T14:33:10;2.85;;;1.00;;
23956;SDS011;12165;45.458;11.062;2022-08-21T14:35:40;2.88;;;0.70;;
23956;SDS011;12165;45.458;11.062;2022-08-21T14:38:11;1.13;;;0.70;;
23956;SDS011;12165;45.458;11.062;2022-08-21T14:40:49;2.42;;;0.57;;
23956;SDS011;12165;45.458;11.062;2022-08-21T14:43:29;1.42;;;0.70;;
23956;SDS011;12165;45.458;11.062;2022-08-21T14:45:57;3.50;;;0.90;;
23956;SDS011;12165;45.458;11.062;2022-08-21T14:48:24;1.75;;;0.80;;
23956;SDS011;12165;45.458;11.062;2022-08-21T14:50:51;1.17;;;0.80;;
23956;SDS011;12165;45.458;11.062;2022-08-21T14:53:25;2.28;;;0.63;;
23956;SDS011;12165;45.458;11.062;2022-08-21T14:55:51;1.02;;;0.73;;
23956;SDS011;12165;45.458;11.062;2022-08-21T14:58:32;5.40;;;1.15;;
23956;SDS011;12165;45.458;11.062;2022-08-21T15:01:01;1.45;;;0.90;;
23956;SDS011;12165;45.458;11.062;2022-08-21T15:03:30;1.55;;;0.90;;
23956;SDS011;12165;45.458;11.062;2022-08-21T15:05:58;0.90;;;0.70;;
23956;SDS011;12165;45.458;11.062;2022-08-21T15:08:26;1.38;;;0.73;;
23956;SDS011;12165;45.458;11.062;2022-08-21T15:10:53;2.58;;;0.80;;
23956;SDS011;12165;45.458;11.062;2022-08-21T15:13:37;1.98;;;0.90;;
23956;SDS011;12165;45.458;11.062;2022-08-21T15:16:05;1.17;;;1.00;;
23956;SDS011;12165;45.458;11.062;2022-08-21T15:18:34;2.42;;;0.75;;
23956;SDS011;12165;45.458;11.062;2022-08-21T15:21:01;1.58;;;0.90;;
23956;SDS011;12165;45.458;11.062;2022-08-21T15:23:27;1.70;;;0.80;;
23956;SDS011;12165;45.458;11.062;2022-08-21T15:25:55;1.75;;;0.95;;
23956;SDS011;12165;45.458;11.062;2022-08-21T15:28:25;1.73;;;0.75;;
23956;SDS011;12165;45.458;11.062;2022-08-21T15:30:57;2.90;;;1.05;;
23956;SDS011;12165;45.458;11.062;2022-08-21T15:33:26;1.08;;;0.90;;
23956;SDS011;12165;45.458;11.062;2022-08-21T15:35:54;1.00;;;0.90;;
23956;SDS011;12165;45.458;11.062;2022-08-21T15:38:21;3.38;;;0.82;;
23956;SDS011;12165;45.458;11.062;2022-08-21T15:40:48;2.90;;;1.13;;
23956;SDS011;12165;45.458;11.062;2022-08-21T15:43:28;1.25;;;0.73;;
23956;SDS011;12165;45.458;11.062;2022-08-21T15:45:58;1.98;;;0.80;;
23956;SDS011;12165;45.458;11.062;2022-08-21T15:48:25;1.30;;;0.90;;
23956;SDS011;12165;45.458;11.062;2022-08-21T15:50:53;1.73;;;0.90;;
23956;SDS011;12165;45.458;11.062;2022-08-21T15:53:20;1.80;;;1.00;;
23956;SDS011;12165;45.458;11.062;2022-08-21T15:55:47;1.73;;;0.93;;
23956;SDS011;12165;45.458;11.062;2022-08-21T15:58:14;1.38;;;0.85;;
23956;SDS011;12165;45.458;11.062;2022-08-21T16:00:42;2.90;;;0.80;;
23956;SDS011;12165;45.458;11.062;2022-08-21T16:03:11;1.35;;;0.90;;
23956;SDS011;12165;45.458;11.062;2022-08-21T16:05:45;3.08;;;0.75;;
23956;SDS011;12165;45.458;11.062;2022-08-21T16:08:14;1.17;;;1.00;;
23956;SDS011;12165;45.458;11.062;2022-08-21T16:10:41;1.05;;;0.70;;
23956;SDS011;12165;45.458;11.062;2022-08-21T16:13:12;2.67;;;0.80;;
23956;SDS011;12165;45.458;11.062;2022-08-21T16:15:46;2.72;;;0.82;;
23956;SDS011;12165;45.458;11.062;2022-08-21T16:18:13;2.83;;;1.00;;
23956;SDS011;12165;45.458;11.062;2022-08-21T16:20:40;1.23;;;0.90;;
23956;SDS011;12165;45.458;11.062;2022-08-21T16:23:07;2.47;;;0.90;;
23956;SDS011;12165;45.458;11.062;2022-08-21T16:25:35;1.40;;;0.70;;
23956;SDS011;12165;45.458;11.062;2022-08-21T16:28:06;1.45;;;1.00;;
23956;SDS011;12165;45.458;11.062;2022-08-21T16:30:38;1.60;;;0.80;;
23956;SDS011;12165;45.458;11.062;2022-08-21T16:33:06;4.18;;;0.93;;
23956;SDS011;12165;45.458;11.062;2022-08-21T16:35:37;1.05;;;0.80;;
23956;SDS011;12165;45.458;11.062;2022-08-21T16:38:04;0.90;;;0.63;;
23956;SDS011;12165;45.458;11.062;2022-08-21T16:40:31;2.47;;;0.93;;
23956;SDS011;12165;45.458;11.062;2022-08-21T16:42:58;2.05;;;0.98;;
23956;SDS011;12165;45.458;11.062;2022-08-21T16:45:25;1.25;;;0.75;;
23956;SDS011;12165;45.458;11.062;2022-08-21T16:47:58;1.10;;;1.00;;
23956;SDS011;12165;45.458;11.062;2022-08-21T16:50:25;1.95;;;1.17;;
23956;SDS011;12165;45.458;11.062;2022-08-21T16:52:52;2.65;;;0.80;;
23956;SDS011;12165;45.458;11.062;2022-08-21T16:55:19;3.10;;;0.80;;
23956;SDS011;12165;45.458;11.062;2022-08-21T16:57:46;1.45;;;0.98;;
23956;SDS011;12165;45.458;11.062;2022-08-21T17:00:13;1.88;;;1.05;;
23956;SDS011;12165;45.458;11.062;2022-08-21T17:02:43;3.35;;;0.82;;
23956;SDS011;12165;45.458;11.062;2022-08-21T17:05:13;1.05;;;0.75;;
23956;SDS011;12165;45.458;11.062;2022-08-21T17:07:41;2.42;;;1.10;;
23956;SDS011;12165;45.458;11.062;2022-08-21T17:10:09;1.83;;;1.33;;
23956;SDS011;12165;45.458;11.062;2022-08-21T17:12:39;1.30;;;1.02;;
23956;SDS011;12165;45.458;11.062;2022-08-21T17:15:21;1.45;;;1.10;;
23956;SDS011;12165;45.458;11.062;2022-08-21T17:17:50;3.65;;;0.90;;
23956;SDS011;12165;45.458;11.062;2022-08-21T17:20:18;2.42;;;0.98;;
23956;SDS011;12165;45.458;11.062;2022-08-21T17:22:46;1.00;;;0.80;;
23956;SDS011;12165;45.458;11.062;2022-08-21T17:25:13;2.70;;;0.90;;
23956;SDS011;12165;45.458;11.062;2022-08-21T17:27:40;2.97;;;1.10;;
23956;SDS011;12165;45.458;11.062;2022-08-21T17:30:09;3.03;;;1.27;;
23956;SDS011;12165;45.458;11.062;2022-08-21T17:32:38;1.42;;;0.93;;
23956;SDS011;12165;45.458;11.062;2022-08-21T17:35:05;1.35;;;0.80;;
23956;SDS011;12165;45.458;11.062;2022-08-21T17:37:33;6.78;;;1.38;;
23956;SDS011;12165;45.458;11.062;2022-08-21T17:40:02;2.78;;;1.15;;
23956;SDS011;12165;45.458;11.062;2022-08-21T17:42:31;3.42;;;1.00;;
23956;SDS011;12165;45.458;11.062;2022-08-21T17:49:17;1.80;;;1.05;;